createdAt,value
2022-11-02T00:01:30.984Z,1.92
2022-11-02T00:03:58.700Z,2.40
2022-11-02T00:06:26.745Z,1.90
2022-11-02T00:08:54.697Z,2.30
2022-11-02T00:11:22.410Z,2.72
2022-11-02T00:13:50.041Z,2.20
2022-11-02T00:16:19.406Z,2.08
2022-11-02T00:18:50.458Z,2.20
2022-11-02T00:21:20.117Z,2.50
2022-11-02T00:23:48.686Z,1.88
2022-11-02T00:26:16.912Z,2.50
2022-11-02T00:28:45.353Z,2.33
2022-11-02T00:31:12.929Z,1.92
2022-11-02T00:33:40.522Z,2.00
2022-11-02T00:36:09.021Z,1.83
2022-11-02T00:38:36.600Z,2.00
2022-11-02T00:41:04.231Z,2.13
2022-11-02T00:43:32.004Z,2.42
2022-11-02T00:45:59.650Z,2.40
2022-11-02T00:48:27.255Z,2.33
2022-11-02T00:50:54.918Z,2.38
2022-11-02T00:53:25.122Z,1.65
2022-11-02T00:55:54.112Z,1.90
2022-11-02T00:58:22.206Z,2.30
2022-11-02T01:00:51.472Z,2.30
2022-11-02T01:03:19.061Z,2.67
2022-11-02T01:05:47.397Z,2.83
2022-11-02T01:08:15.785Z,2.60
2022-11-02T01:10:47.164Z,1.98
2022-11-02T01:13:17.317Z,1.83
2022-11-02T01:15:44.815Z,3.08
2022-11-02T01:18:12.299Z,2.05
2022-11-02T01:20:40.211Z,2.08
2022-11-02T01:23:07.752Z,1.98
2022-11-02T01:25:35.212Z,2.40
2022-11-02T01:28:03.169Z,2.58
2022-11-02T01:30:30.980Z,2.38
2022-11-02T01:32:58.559Z,2.10
2022-11-02T01:35:27.598Z,3.20
2022-11-02T01:37:55.145Z,2.50
2022-11-02T01:40:22.724Z,1.90
2022-11-02T01:42:50.206Z,2.50
2022-11-02T01:45:17.836Z,2.42
2022-11-02T01:47:48.477Z,2.10
2022-11-02T01:50:21.553Z,2.38
2022-11-02T01:52:49.041Z,2.53
2022-11-02T01:55:21.435Z,2.30
2022-11-02T01:57:57.827Z,2.20
2022-11-02T02:00:25.434Z,1.90
2022-11-02T02:03:10.574Z,2.08
2022-11-02T02:05:45.323Z,1.90
2022-11-02T02:08:20.914Z,3.05
2022-11-02T02:10:48.447Z,2.28
2022-11-02T02:13:17.461Z,2.00
2022-11-02T02:16:08.159Z,2.03
2022-11-02T02:18:46.470Z,2.88
2022-11-02T02:21:40.038Z,2.67
2022-11-02T02:24:48.896Z,3.13
2022-11-02T02:27:28.016Z,2.00
2022-11-02T02:30:10.164Z,2.50
2022-11-02T02:32:58.064Z,2.97
2022-11-02T02:35:25.549Z,2.30
2022-11-02T02:37:53.017Z,2.05
2022-11-02T02:40:38.717Z,2.35
2022-11-02T02:43:21.930Z,2.65
2022-11-02T02:46:03.495Z,2.33
2022-11-02T02:48:31.817Z,1.98
2022-11-02T02:51:06.416Z,2.67
2022-11-02T02:53:46.455Z,1.58
2022-11-02T02:56:19.886Z,2.05
2022-11-02T02:59:00.925Z,2.45
2022-11-02T03:01:29.145Z,5.00
2022-11-02T03:03:56.718Z,3.03
2022-11-02T03:06:35.378Z,3.15
2022-11-02T03:09:32.942Z,3.40
2022-11-02T03:12:35.049Z,2.60
2022-11-02T03:15:13.921Z,2.03
2022-11-02T03:17:47.644Z,1.95
2022-11-02T03:20:44.707Z,2.20
2022-11-02T03:23:31.373Z,2.13
2022-11-02T03:26:07.605Z,2.47
2022-11-02T03:29:04.233Z,2.42
2022-11-02T03:31:51.896Z,5.28
2022-11-02T03:34:38.619Z,3.13
2022-11-02T03:37:20.436Z,2.65
2022-11-02T03:39:59.149Z,3.08
2022-11-02T03:42:30.728Z,2.72
2022-11-02T03:45:02.847Z,3.45
2022-11-02T03:47:33.466Z,2.88
2022-11-02T03:50:08.272Z,3.53
2022-11-02T03:52:40.893Z,3.55
2022-11-02T03:55:18.272Z,3.20
2022-11-02T03:57:52.203Z,3.03
2022-11-02T04:00:27.339Z,3.40
2022-11-02T04:03:04.295Z,2.88
2022-11-02T04:05:36.253Z,2.70
2022-11-02T04:08:20.819Z,2.95
2022-11-02T04:11:11.529Z,3.67
2022-11-02T04:13:58.826Z,2.65
2022-11-02T04:16:28.861Z,4.15
2022-11-02T04:19:17.821Z,2.90
2022-11-02T04:22:05.663Z,3.65
2022-11-02T04:24:54.330Z,3.25
2022-11-02T04:27:22.085Z,3.67
2022-11-02T04:29:51.594Z,5.53
2022-11-02T04:32:39.674Z,2.35
2022-11-02T04:35:11.194Z,2.35
2022-11-02T04:38:11.261Z,2.83
2022-11-02T04:40:40.385Z,2.20
2022-11-02T04:43:08.721Z,2.47
2022-11-02T04:45:36.990Z,3.33
2022-11-02T04:48:09.336Z,2.95
2022-11-02T04:50:37.636Z,3.33
2022-11-02T04:53:09.721Z,4.30
2022-11-02T04:55:39.602Z,3.60
2022-11-02T04:58:08.219Z,6.25
2022-11-02T05:00:36.033Z,4.30
2022-11-02T05:03:06.841Z,3.08
2022-11-02T05:05:37.806Z,2.92
2022-11-02T05:08:05.665Z,2.42
2022-11-02T05:10:33.611Z,2.80
2022-11-02T05:30:33.832Z,3.65
2022-11-02T05:33:03.348Z,3.92
2022-11-02T05:35:31.966Z,2.95
2022-11-02T05:37:59.726Z,3.70
2022-11-02T05:40:27.333Z,2.20
2022-11-02T05:43:01.785Z,3.08
2022-11-02T05:45:30.757Z,5.45
2022-11-02T05:48:01.340Z,2.58
2022-11-02T05:50:32.070Z,2.47
2022-11-02T05:53:02.707Z,2.00
2022-11-02T05:55:33.853Z,2.10
2022-11-02T05:58:01.444Z,3.42
2022-11-02T06:00:29.057Z,2.42
2022-11-02T06:02:57.893Z,3.00
2022-11-02T06:05:26.468Z,3.20
2022-11-02T06:08:01.940Z,2.45
2022-11-02T06:10:30.986Z,2.28
2022-11-02T06:13:00.434Z,2.78
2022-11-02T06:15:29.773Z,2.72
2022-11-02T06:17:57.580Z,3.28
2022-11-02T06:20:25.346Z,2.83
2022-11-02T06:22:53.017Z,2.80
2022-11-02T06:25:20.633Z,3.15
2022-11-02T06:27:55.027Z,2.65
2022-11-02T06:30:25.507Z,4.25
2022-11-02T06:32:54.144Z,3.67
2022-11-02T06:35:23.113Z,3.10
2022-11-02T06:37:50.733Z,3.28
2022-11-02T06:40:21.364Z,3.65
2022-11-02T06:43:15.258Z,5.38
2022-11-02T06:45:46.863Z,4.15
2022-11-02T06:48:14.597Z,3.67
2022-11-02T06:51:07.025Z,3.20
2022-11-02T06:53:34.813Z,2.65
2022-11-02T06:56:02.500Z,2.25
2022-11-02T06:58:30.328Z,2.75
2022-11-02T07:01:04.463Z,3.08
2022-11-02T07:03:32.242Z,5.93
2022-11-02T07:06:00.479Z,4.30
2022-11-02T07:08:28.752Z,10.15
2022-11-02T07:10:57.114Z,4.05
2022-11-02T07:13:25.026Z,3.30
2022-11-02T07:15:54.371Z,2.47
2022-11-02T07:18:22.923Z,2.75
2022-11-02T07:20:50.698Z,4.47
2022-11-02T07:23:18.372Z,4.93
2022-11-02T07:25:46.204Z,4.15
2022-11-02T07:28:14.130Z,3.88
2022-11-02T07:30:41.801Z,4.28
2022-11-02T07:33:09.417Z,4.50
2022-11-02T07:35:37.423Z,4.10
2022-11-02T07:38:06.854Z,4.85
2022-11-02T07:40:36.405Z,2.60
2022-11-02T07:43:05.333Z,3.15
2022-11-02T07:45:51.496Z,2.65
2022-11-02T07:48:19.110Z,1.75
2022-11-02T07:50:49.865Z,2.80
2022-11-02T07:53:17.583Z,2.20
2022-11-02T07:55:45.250Z,1.80
2022-11-02T07:58:14.155Z,3.03
2022-11-02T08:00:42.862Z,2.22
2022-11-02T08:03:12.176Z,2.45
2022-11-02T08:05:41.745Z,2.38
2022-11-02T08:08:18.834Z,1.80
2022-11-02T08:10:48.210Z,2.85
2022-11-02T08:13:21.606Z,2.70
2022-11-02T08:15:50.786Z,1.73
2022-11-02T08:18:26.963Z,2.15
2022-11-02T08:20:59.395Z,1.95
2022-11-02T08:23:27.220Z,2.40
2022-11-02T08:25:55.568Z,1.80
2022-11-02T08:28:28.979Z,1.95
2022-11-02T08:30:58.632Z,1.77
2022-11-02T08:33:26.263Z,1.92
2022-11-02T08:35:54.141Z,2.15
2022-11-02T08:38:24.487Z,2.38
2022-11-02T08:40:52.247Z,1.95
2022-11-02T08:43:19.836Z,1.67
2022-11-02T08:46:13.751Z,1.48
2022-11-02T08:48:37.981Z,2.67
2022-11-02T08:51:05.846Z,1.92
2022-11-02T08:53:33.561Z,1.63
2022-11-02T08:56:01.259Z,1.38
2022-11-02T08:58:28.972Z,1.67
2022-11-02T09:00:57.003Z,2.28
2022-11-02T09:03:27.181Z,1.90
2022-11-02T09:06:00.500Z,1.58
2022-11-02T09:08:29.231Z,1.60
2022-11-02T09:11:02.686Z,1.90
2022-11-02T09:13:30.841Z,1.90
2022-11-02T09:16:00.185Z,2.15
2022-11-02T09:18:30.382Z,1.95
2022-11-02T09:21:02.038Z,2.22
2022-11-02T09:23:29.693Z,2.10
2022-11-02T09:25:58.272Z,2.17
2022-11-02T09:28:26.248Z,2.00
2022-11-02T09:30:54.019Z,2.00
2022-11-02T09:33:21.637Z,1.58
2022-11-02T09:35:49.756Z,1.73
2022-11-02T09:38:23.514Z,1.85
2022-11-02T09:41:05.829Z,1.45
2022-11-02T09:43:39.449Z,1.77
2022-11-02T09:46:16.893Z,1.73
2022-11-02T09:48:54.400Z,1.58
2022-11-02T09:52:02.896Z,1.98
2022-11-02T09:54:35.544Z,1.75
2022-11-02T09:57:10.635Z,2.25
2022-11-02T09:59:38.218Z,1.60
2022-11-02T10:02:17.696Z,2.17
2022-11-02T10:04:53.680Z,2.05
2022-11-02T10:07:39.309Z,1.75
2022-11-02T10:10:22.332Z,1.38
2022-11-02T10:12:56.051Z,2.22
2022-11-02T10:15:52.844Z,1.33
2022-11-02T10:18:26.567Z,1.88
2022-11-02T10:21:32.572Z,1.80
2022-11-02T10:24:30.014Z,1.92
2022-11-02T10:27:01.205Z,1.38
2022-11-02T10:29:54.271Z,1.70
2022-11-02T10:32:22.073Z,1.38
2022-11-02T10:34:58.668Z,1.88
2022-11-02T10:37:50.981Z,1.80
2022-11-02T10:41:07.767Z,1.70
2022-11-02T10:43:53.065Z,3.10
2022-11-02T10:46:32.996Z,1.95
2022-11-02T10:49:28.480Z,1.35
2022-11-02T10:51:55.970Z,1.17
2022-11-02T10:54:29.461Z,1.15
2022-11-02T10:57:17.569Z,1.77
2022-11-02T10:59:45.113Z,1.67
2022-11-02T11:02:14.321Z,2.33
2022-11-02T11:04:42.870Z,1.80
2022-11-02T11:07:15.099Z,1.80
2022-11-02T11:09:46.924Z,1.73
2022-11-02T11:12:22.228Z,1.73
2022-11-02T11:20:39.921Z,1.77
2022-11-02T11:23:26.438Z,1.27
2022-11-02T11:26:02.781Z,1.33
2022-11-02T11:28:37.356Z,2.15
2022-11-02T11:31:07.826Z,1.80
2022-11-02T11:33:58.529Z,2.10
2022-11-02T11:36:33.012Z,1.27
2022-11-02T11:39:26.081Z,1.60
2022-11-02T11:41:53.678Z,1.95
2022-11-02T11:44:22.369Z,1.88
2022-11-02T11:46:54.319Z,2.17
2022-11-02T11:49:41.743Z,1.67
2022-11-02T11:52:32.420Z,2.00
2022-11-02T11:55:02.535Z,2.28
2022-11-02T11:57:32.765Z,2.15
2022-11-02T12:00:04.952Z,1.40
2022-11-02T12:02:41.063Z,2.20
2022-11-02T12:05:21.057Z,2.03
2022-11-02T12:08:29.864Z,1.90
2022-11-02T12:11:19.165Z,1.35
2022-11-02T12:14:11.036Z,2.00
2022-11-02T12:16:56.699Z,1.83
2022-11-02T12:19:57.886Z,1.08
2022-11-02T12:22:40.486Z,1.90
2022-11-02T12:25:16.921Z,2.30
2022-11-02T12:28:13.422Z,1.55
2022-11-02T12:31:11.408Z,1.45
2022-11-02T12:34:04.539Z,1.65
2022-11-02T12:37:32.782Z,1.83
2022-11-02T12:40:07.259Z,1.40
2022-11-02T12:42:43.265Z,1.65
2022-11-02T12:45:39.836Z,1.75
2022-11-02T12:51:02.667Z,1.20
2022-11-02T12:53:44.106Z,1.80
2022-11-02T12:56:43.894Z,1.50
2022-11-02T12:59:23.743Z,1.73
2022-11-02T13:01:56.546Z,1.45
2022-11-02T13:04:39.649Z,1.60
2022-11-02T13:07:12.985Z,1.48
2022-11-02T13:09:51.634Z,1.42
2022-11-02T13:12:23.613Z,1.48
2022-11-02T13:14:54.656Z,1.23
2022-11-02T13:17:59.675Z,1.30
2022-11-02T13:20:44.241Z,1.45
2022-11-02T13:23:36.485Z,1.67
2022-11-02T13:26:11.867Z,1.95
2022-11-02T13:28:50.478Z,1.75
2022-11-02T13:31:25.917Z,1.77
2022-11-02T13:33:56.069Z,1.95
2022-11-02T13:36:23.567Z,1.80
2022-11-02T13:39:00.960Z,1.40
2022-11-02T13:41:58.762Z,2.45
2022-11-02T13:44:36.798Z,1.90
2022-11-02T13:47:12.234Z,2.65
2022-11-02T13:49:43.361Z,2.63
2022-11-02T13:52:15.508Z,1.75
2022-11-02T13:54:54.555Z,2.33
2022-11-02T13:57:31.398Z,1.63
2022-11-02T13:59:59.946Z,1.60
2022-11-02T14:02:31.927Z,1.95
2022-11-02T14:05:00.571Z,1.65
2022-11-02T14:07:38.871Z,1.85
2022-11-02T14:10:24.672Z,1.88
2022-11-02T14:12:52.247Z,1.33
2022-11-02T14:15:19.679Z,1.45
2022-11-02T14:17:53.305Z,1.55
2022-11-02T14:20:35.924Z,1.48
2022-11-02T14:23:09.776Z,1.15
2022-11-02T14:25:53.343Z,1.48
2022-11-02T14:28:26.650Z,1.40
2022-11-02T14:30:54.145Z,1.88
2022-11-02T14:33:21.586Z,1.52
2022-11-02T14:36:05.703Z,1.73
2022-11-02T14:38:54.646Z,1.77
2022-11-02T14:41:24.877Z,4.05
2022-11-02T14:44:07.767Z,2.47
2022-11-02T14:46:56.779Z,2.88
2022-11-02T14:49:49.431Z,2.65
2022-11-02T14:52:36.707Z,1.73
2022-11-02T14:55:04.224Z,1.98
2022-11-02T14:57:39.008Z,2.17
2022-11-02T15:00:18.814Z,2.27
2022-11-02T15:02:47.190Z,1.70
2022-11-02T15:05:35.885Z,1.80
2022-11-02T15:08:29.465Z,1.95
2022-11-02T15:10:57.681Z,2.95
2022-11-02T15:13:45.600Z,1.90
2022-11-02T15:16:13.106Z,2.40
2022-11-02T15:18:40.663Z,3.50
2022-11-02T15:21:11.332Z,2.38
2022-11-02T15:24:04.734Z,2.65
2022-11-02T15:26:40.746Z,1.95
2022-11-02T15:29:33.171Z,1.52
2022-11-02T15:32:02.224Z,1.67
2022-11-02T15:34:50.195Z,1.92
2022-11-02T15:37:29.041Z,1.75
2022-11-02T15:40:03.129Z,1.88
2022-11-02T15:42:58.408Z,2.35
2022-11-02T15:45:49.426Z,1.63
2022-11-02T15:48:22.221Z,2.65
2022-11-02T15:50:58.022Z,1.70
2022-11-02T15:56:28.477Z,2.92
2022-11-02T15:59:24.000Z,2.20
2022-11-02T16:02:12.552Z,2.17
2022-11-02T16:04:45.523Z,2.00
2022-11-02T16:07:17.338Z,2.08
2022-11-02T16:09:48.433Z,2.25
2022-11-02T16:12:20.193Z,10.60
2022-11-02T16:15:02.011Z,3.28
2022-11-02T16:17:31.240Z,3.20
2022-11-02T16:20:13.869Z,3.22
2022-11-02T16:22:47.619Z,3.67
2022-11-02T16:25:26.280Z,4.25
2022-11-02T16:27:53.891Z,5.80
2022-11-02T16:30:23.205Z,5.78
2022-11-02T16:32:59.669Z,6.43
2022-11-02T16:35:27.650Z,4.32
2022-11-02T16:37:55.398Z,3.55
2022-11-02T16:40:23.405Z,4.43
2022-11-02T16:42:53.439Z,4.18
2022-11-02T16:45:43.315Z,4.97
2022-11-02T16:48:32.895Z,4.68
2022-11-02T16:51:15.048Z,4.45
2022-11-02T16:53:43.124Z,3.35
2022-11-02T16:56:16.753Z,2.25
2022-11-02T16:58:48.945Z,3.35
2022-11-02T17:01:22.877Z,4.32
2022-11-02T17:03:50.912Z,3.78
2022-11-02T17:06:19.209Z,3.95
2022-11-02T17:08:53.361Z,4.07
2022-11-02T17:11:22.093Z,4.38
2022-11-02T17:13:56.971Z,3.78
2022-11-02T17:16:24.557Z,2.80
2022-11-02T17:18:52.121Z,3.67
2022-11-02T17:21:28.817Z,3.33
2022-11-02T17:23:58.476Z,5.38
2022-11-02T17:26:32.297Z,5.40
2022-11-02T17:29:01.357Z,5.95
2022-11-02T17:31:36.159Z,4.20
2022-11-02T17:34:17.571Z,3.77
2022-11-02T17:36:49.767Z,3.13
2022-11-02T17:39:19.408Z,5.57
2022-11-02T17:42:11.442Z,8.85
2022-11-02T17:44:39.722Z,8.90
2022-11-02T17:47:16.532Z,6.53
2022-11-02T17:49:44.143Z,6.28
2022-11-02T17:52:19.122Z,5.68
2022-11-02T17:54:46.757Z,7.67
2022-11-02T17:57:15.718Z,8.75
2022-11-02T17:59:43.218Z,5.88
2022-11-02T18:02:15.962Z,5.50
2022-11-02T18:07:12.442Z,6.20
2022-11-02T18:09:40.348Z,6.40
2022-11-02T18:12:12.868Z,6.38
2022-11-02T18:14:40.876Z,5.32
2022-11-02T18:17:08.715Z,4.78
2022-11-02T18:19:43.240Z,5.03
2022-11-02T18:22:16.917Z,4.25
2022-11-02T18:24:44.711Z,4.18
2022-11-02T18:27:12.618Z,4.25
2022-11-02T18:29:40.180Z,5.38
2022-11-02T18:32:14.915Z,4.97
2022-11-02T18:34:42.587Z,5.03
2022-11-02T18:37:10.438Z,4.53
2022-11-02T18:39:42.011Z,5.05
2022-11-02T18:42:09.769Z,7.28
2022-11-02T18:44:37.462Z,8.02
2022-11-02T18:47:05.096Z,6.75
2022-11-02T18:49:32.781Z,6.03
2022-11-02T18:52:00.377Z,4.90
2022-11-02T18:54:27.912Z,4.70
2022-11-02T18:56:55.616Z,4.78
2022-11-02T18:59:23.171Z,5.15
2022-11-02T19:01:50.747Z,5.50
2022-11-02T19:04:18.488Z,5.93
2022-11-02T19:07:04.996Z,8.45
2022-11-02T19:09:33.565Z,6.60
2022-11-02T19:12:01.054Z,7.63
2022-11-02T19:14:36.161Z,7.70
2022-11-02T19:17:05.109Z,8.10
2022-11-02T19:19:32.943Z,5.35
2022-11-02T19:22:01.412Z,5.10
2022-11-02T19:24:28.968Z,5.22
2022-11-02T19:26:56.667Z,4.60
2022-11-02T19:29:24.515Z,4.68
2022-11-02T19:31:52.047Z,4.63
2022-11-02T19:34:19.552Z,3.05
2022-11-02T19:36:47.125Z,4.30
2022-11-02T19:39:14.773Z,4.53
2022-11-02T19:41:42.372Z,4.10
2022-11-02T19:44:09.852Z,4.63
2022-11-02T19:46:37.450Z,4.60
2022-11-02T19:49:04.985Z,5.05
2022-11-02T19:51:32.569Z,4.28
2022-11-02T19:54:01.885Z,4.30
2022-11-02T19:56:32.341Z,4.75
2022-11-02T19:59:01.136Z,4.45
2022-11-02T20:01:31.232Z,3.70
2022-11-02T20:03:59.633Z,4.65
2022-11-02T20:06:28.278Z,4.63
2022-11-02T20:08:57.301Z,4.43
2022-11-02T20:11:29.501Z,5.32
2022-11-02T20:14:01.664Z,4.63
2022-11-02T20:16:32.320Z,4.93
2022-11-02T20:19:00.115Z,4.80
2022-11-02T20:21:33.375Z,4.28
2022-11-02T20:24:09.085Z,4.85
2022-11-02T20:26:38.947Z,5.10
2022-11-02T20:29:09.527Z,4.28
2022-11-02T20:31:39.836Z,3.95
2022-11-02T20:34:09.315Z,4.03
2022-11-02T20:37:15.193Z,3.42
2022-11-02T20:39:55.843Z,4.07
2022-11-02T20:42:24.745Z,3.47
2022-11-02T20:44:52.304Z,4.22
2022-11-02T20:47:19.908Z,4.03
2022-11-02T20:49:51.406Z,4.70
2022-11-02T20:52:22.013Z,4.68
2022-11-02T20:54:50.060Z,4.07
2022-11-02T20:57:17.681Z,3.83
2022-11-02T20:59:46.059Z,4.03
2022-11-02T21:02:13.826Z,5.10
2022-11-02T21:04:41.637Z,4.63
2022-11-02T21:07:09.221Z,4.82
2022-11-02T21:09:36.733Z,4.13
2022-11-02T21:12:23.134Z,4.53
2022-11-02T21:14:50.759Z,5.38
2022-11-02T21:17:18.361Z,4.28
2022-11-02T21:19:46.516Z,4.47
2022-11-02T21:22:13.992Z,4.00
2022-11-02T21:24:41.510Z,4.05
2022-11-02T21:27:09.046Z,4.10
2022-11-02T21:29:36.520Z,4.28
2022-11-02T21:32:04.386Z,3.72
2022-11-02T21:34:31.978Z,3.97
2022-11-02T21:36:59.590Z,3.75
2022-11-02T21:39:27.132Z,3.22
2022-11-02T21:41:54.664Z,3.45
2022-11-02T21:44:22.204Z,3.65
2022-11-02T21:46:49.948Z,3.50
2022-11-02T21:49:17.413Z,3.28
2022-11-02T21:51:45.169Z,3.00
2022-11-02T21:54:12.866Z,3.25
2022-11-02T21:56:40.445Z,3.72
2022-11-02T21:59:09.605Z,3.10
2022-11-02T22:01:50.279Z,4.03
2022-11-02T22:04:25.459Z,2.83
2022-11-02T22:06:53.609Z,3.30
2022-11-02T22:09:21.477Z,2.85
2022-11-02T22:12:09.321Z,3.00
2022-11-02T22:14:37.867Z,3.17
2022-11-02T22:17:16.535Z,3.33
2022-11-02T22:19:50.902Z,2.83
2022-11-02T22:22:19.308Z,2.92
2022-11-02T22:24:46.919Z,2.75
2022-11-02T22:27:15.016Z,2.97
2022-11-02T22:29:42.458Z,3.38
2022-11-02T22:32:10.047Z,2.60
2022-11-02T22:34:37.554Z,2.83
2022-11-02T22:37:28.086Z,3.25
2022-11-02T22:39:55.631Z,2.88
2022-11-02T22:42:23.132Z,2.90
2022-11-02T22:44:50.656Z,3.15
2022-11-02T22:47:18.180Z,3.58
2022-11-02T22:49:45.681Z,3.03
2022-11-02T22:52:13.122Z,2.25
2022-11-02T22:54:40.758Z,2.90
2022-11-02T22:57:08.261Z,3.17
2022-11-02T22:59:36.132Z,3.63
2022-11-02T23:02:03.621Z,2.78
2022-11-02T23:04:35.543Z,3.17
2022-11-02T23:07:03.555Z,2.33
2022-11-02T23:09:31.093Z,2.55
2022-11-02T23:11:58.635Z,3.20
2022-11-02T23:14:26.212Z,3.67
2022-11-02T23:16:53.948Z,3.13
2022-11-02T23:19:40.737Z,2.55
2022-11-02T23:22:29.523Z,2.60
2022-11-02T23:25:12.199Z,3.33
2022-11-02T23:28:32.270Z,3.53
2022-11-02T23:31:18.405Z,3.00
2022-11-02T23:33:46.027Z,3.20
2022-11-02T23:36:15.467Z,2.90
2022-11-02T23:39:04.258Z,2.65
2022-11-02T23:41:33.575Z,2.42
2022-11-02T23:44:19.048Z,3.05
2022-11-02T23:46:51.638Z,2.67
2022-11-02T23:49:20.263Z,3.03
2022-11-02T23:52:07.429Z,2.50
2022-11-02T23:54:57.535Z,3.30
2022-11-02T23:57:28.884Z,3.35
2022-11-02T23:59:57.879Z,3.40
